Time;durP1;ratioP1;P1;durP2;ratioP2;P2;SDS_P1;SDS_P2;PMS_P1;PMS_P2;Temp;Humidity;BMP_temperature;BMP_pressure;BME280_temperature;BME280_humidity;BME280_pressure;Samples;Min_cycle;Max_cycle;Signal;HPM_P1;HPM_P2
2023/05/16 00:00:57;;;;;;;13.63;3.42;;;10.90;99.90;;;;;;5062281;28;20033;-73
2023/05/16 00:03:22;;;;;;;11.35;3.00;;;10.90;99.90;;;;;;5062642;28;20025;-75
2023/05/16 00:05:49;;;;;;;12.20;3.05;;;10.80;99.90;;;;;;5062933;28;20033;-71
2023/05/16 00:08:16;;;;;;;11.95;3.15;;;10.80;99.90;;;;;;5062770;28;20032;-75
2023/05/16 00:10:41;;;;;;;11.98;3.28;;;10.70;99.90;;;;;;5061445;28;20044;-73
2023/05/16 00:13:08;;;;;;;12.88;2.88;;;10.60;99.90;;;;;;5063039;28;20031;-73
2023/05/16 00:15:34;;;;;;;14.15;3.10;;;10.60;99.90;;;;;;5062487;28;20043;-73
2023/05/16 00:18:00;;;;;;;19.63;3.55;;;10.60;99.90;;;;;;5060952;28;20029;-73
2023/05/16 00:20:26;;;;;;;15.05;3.55;;;10.60;99.90;;;;;;5062801;28;20100;-72
2023/05/16 00:22:52;;;;;;;17.95;3.95;;;10.60;99.90;;;;;;5062230;28;20055;-71
2023/05/16 00:25:18;;;;;;;11.02;3.53;;;10.50;99.90;;;;;;5061390;28;20025;-73
2023/05/16 00:27:44;;;;;;;17.20;2.95;;;10.50;99.90;;;;;;5061173;28;20021;-73
2023/05/16 00:30:10;;;;;;;23.42;3.40;;;10.50;99.90;;;;;;5060946;28;20037;-72
2023/05/16 00:32:35;;;;;;;22.95;4.57;;;10.50;99.90;;;;;;5060694;28;20037;-75
2023/05/16 00:35:01;;;;;;;19.52;3.40;;;10.40;99.90;;;;;;5061093;28;20098;-73
2023/05/16 00:37:27;;;;;;;15.50;3.15;;;10.40;99.90;;;;;;5060514;28;20036;-74
2023/05/16 00:39:53;;;;;;;14.63;3.10;;;10.40;99.90;;;;;;5061317;28;20063;-72
2023/05/16 00:42:19;;;;;;;22.58;4.22;;;10.40;99.90;;;;;;5061338;28;20033;-72
2023/05/16 00:44:45;;;;;;;20.40;3.42;;;10.40;99.90;;;;;;5061374;28;20025;-75
2023/05/16 00:47:11;;;;;;;18.38;3.05;;;10.40;99.90;;;;;;5060807;28;20048;-77
2023/05/16 00:49:37;;;;;;;15.32;3.55;;;10.40;99.90;;;;;;5059943;28;20052;-71
2023/05/16 00:52:03;;;;;;;19.52;3.20;;;10.30;99.90;;;;;;5061500;28;20088;-75
2023/05/16 00:54:29;;;;;;;16.95;2.70;;;10.30;99.90;;;;;;5061854;28;20032;-77
2023/05/16 00:56:56;;;;;;;23.75;3.47;;;10.30;99.90;;;;;;5060499;28;20036;-72
2023/05/16 00:59:23;;;;;;;19.17;3.10;;;10.30;99.90;;;;;;5061150;28;20017;-73
2023/05/16 01:01:49;;;;;;;19.30;3.33;;;10.40;99.90;;;;;;5059203;28;20345;-76
2023/05/16 01:04:16;;;;;;;16.88;3.10;;;10.30;99.90;;;;;;5060715;28;20104;-73
2023/05/16 01:06:43;;;;;;;17.33;3.08;;;10.30;99.90;;;;;;5061616;28;20025;-74
2023/05/16 01:09:09;;;;;;;22.55;3.05;;;10.30;99.90;;;;;;5061445;28;20068;-75
2023/05/16 01:11:57;;;;;;;19.58;3.42;;;10.30;99.90;;;;;;5060891;28;20044;-75
2023/05/16 01:14:37;;;;;;;16.85;2.80;;;10.30;99.90;;;;;;5060049;28;20025;-73
2023/05/16 01:17:11;;;;;;;19.67;3.28;;;10.30;99.90;;;;;;5061491;28;20035;-72
2023/05/16 01:20:14;;;;;;;13.38;2.90;;;10.30;99.90;;;;;;5059631;28;20032;-74
2023/05/16 01:22:46;;;;;;;12.05;2.50;;;10.30;99.90;;;;;;5060170;28;20041;-71
2023/05/16 01:25:46;;;;;;;15.27;2.53;;;10.30;99.90;;;;;;5060422;28;20043;-73
2023/05/16 01:28:14;;;;;;;24.05;3.65;;;10.30;99.90;;;;;;5059894;28;20036;-73
2023/05/16 01:30:43;;;;;;;16.70;3.13;;;10.40;99.90;;;;;;5060088;28;20037;-70
2023/05/16 01:33:09;;;;;;;17.67;3.22;;;10.30;99.90;;;;;;5059439;28;20139;-74
2023/05/16 01:35:59;;;;;;;19.85;3.28;;;10.40;99.90;;;;;;5060794;28;20064;-75
2023/05/16 01:38:44;;;;;;;16.90;3.85;;;10.40;99.90;;;;;;5060346;28;20120;-73
2023/05/16 01:41:23;;;;;;;25.58;4.55;;;10.40;99.90;;;;;;5060547;28;20028;-76
2023/05/16 01:43:55;;;;;;;21.58;3.50;;;10.40;99.90;;;;;;5059730;28;20040;-76
2023/05/16 01:46:26;;;;;;;16.40;3.80;;;10.40;99.90;;;;;;5058702;28;20029;-77
2023/05/16 01:49:00;;;;;;;22.35;3.92;;;10.40;99.90;;;;;;5059084;28;20116;-75
2023/05/16 01:51:32;;;;;;;29.23;3.65;;;10.40;99.90;;;;;;5059460;28;20432;-76
2023/05/16 01:54:11;;;;;;;17.70;3.58;;;10.40;99.90;;;;;;5058959;28;20122;-71
2023/05/16 01:56:37;;;;;;;28.42;5.35;;;10.40;99.90;;;;;;5060128;28;20032;-73
2023/05/16 01:59:04;;;;;;;20.77;4.07;;;10.40;99.90;;;;;;5061196;28;20033;-72
2023/05/16 02:01:30;;;;;;;21.65;4.07;;;10.40;99.90;;;;;;5060024;28;20021;-72
2023/05/16 02:03:57;;;;;;;21.88;4.10;;;10.40;99.90;;;;;;5059787;28;20439;-72
2023/05/16 02:06:23;;;;;;;24.55;3.80;;;10.40;99.90;;;;;;5058954;28;20017;-73
2023/05/16 02:08:48;;;;;;;27.50;3.90;;;10.50;99.90;;;;;;5060396;28;20104;-73
2023/05/16 02:11:14;;;;;;;21.42;3.42;;;10.40;99.90;;;;;;5059052;28;20504;-73
2023/05/16 02:13:39;;;;;;;32.53;4.53;;;10.30;99.90;;;;;;5058484;28;20040;-75
2023/05/16 02:16:05;;;;;;;32.88;3.97;;;10.20;99.90;;;;;;5060455;28;20036;-74
2023/05/16 02:18:31;;;;;;;30.90;4.22;;;10.20;99.90;;;;;;5060547;28;20084;-73
2023/05/16 02:20:57;;;;;;;19.38;3.63;;;10.20;99.90;;;;;;5059972;28;20036;-75
2023/05/16 02:23:22;;;;;;;24.73;4.05;;;10.20;99.90;;;;;;5060522;28;20056;-75
2023/05/16 02:25:48;;;;;;;29.65;4.35;;;10.20;99.90;;;;;;5060318;28;20025;-73
2023/05/16 02:28:13;;;;;;;28.23;4.05;;;10.10;99.90;;;;;;5060413;28;20025;-73
2023/05/16 02:30:41;;;;;;;28.88;3.60;;;10.10;99.90;;;;;;5059173;28;20065;-75
2023/05/16 02:33:07;;;;;;;28.10;4.22;;;10.10;99.90;;;;;;5059233;28;20036;-75
2023/05/16 02:35:32;;;;;;;27.65;4.25;;;10.00;99.90;;;;;;5059334;28;20385;-71
2023/05/16 02:37:58;;;;;;;26.48;3.85;;;10.00;99.90;;;;;;5059797;28;20053;-71
2023/05/16 02:40:23;;;;;;;26.60;4.07;;;9.90;99.90;;;;;;5059642;28;20071;-71
2023/05/16 02:42:49;;;;;;;21.95;3.33;;;9.90;99.90;;;;;;5060302;28;20024;-73
2023/05/16 02:45:15;;;;;;;21.23;3.55;;;9.80;99.90;;;;;;5060539;28;20021;-74
2023/05/16 02:47:41;;;;;;;24.17;3.55;;;9.80;99.90;;;;;;5060001;28;20024;-74
2023/05/16 02:50:07;;;;;;;28.17;3.58;;;9.70;99.90;;;;;;5059920;28;20132;-76
2023/05/16 02:52:32;;;;;;;24.20;4.10;;;9.70;99.90;;;;;;5060449;28;20841;-73
2023/05/16 02:54:58;;;;;;;20.42;4.22;;;9.70;99.90;;;;;;5060369;28;20015;-75
2023/05/16 02:57:23;;;;;;;31.30;3.92;;;9.60;99.90;;;;;;5057968;28;21184;-74
2023/05/16 02:59:49;;;;;;;20.48;3.45;;;9.60;99.90;;;;;;5057287;28;20029;-73
2023/05/16 03:02:14;;;;;;;21.45;3.13;;;9.70;99.90;;;;;;5060191;28;20017;-71
2023/05/16 03:04:40;;;;;;;24.88;4.00;;;9.60;99.90;;;;;;5058916;28;20446;-73
2023/05/16 03:07:06;;;;;;;27.25;4.03;;;9.70;99.90;;;;;;5058416;28;20021;-74
2023/05/16 03:09:31;;;;;;;25.52;3.53;;;9.70;99.90;;;;;;5058264;28;20037;-74
2023/05/16 03:11:58;;;;;;;28.52;3.40;;;9.70;99.90;;;;;;5059536;28;20492;-72
2023/05/16 03:14:24;;;;;;;20.08;3.00;;;9.70;99.90;;;;;;5058365;28;20116;-74
2023/05/16 03:16:49;;;;;;;27.55;4.00;;;9.70;99.90;;;;;;5058490;28;20068;-73
2023/05/16 03:19:15;;;;;;;34.72;3.22;;;9.60;99.90;;;;;;5058735;28;20017;-72
2023/05/16 03:21:40;;;;;;;21.92;3.22;;;9.60;99.90;;;;;;5060282;28;20074;-74
2023/05/16 03:24:06;;;;;;;21.25;3.03;;;9.60;99.90;;;;;;5057156;28;20021;-76
2023/05/16 03:26:32;;;;;;;24.92;2.80;;;9.50;99.90;;;;;;5062988;28;20052;-74
2023/05/16 03:28:58;;;;;;;21.10;2.95;;;9.60;99.90;;;;;;5062062;28;20473;-73
2023/05/16 03:31:23;;;;;;;17.10;2.70;;;9.60;99.90;;;;;;5063285;28;20080;-75
2023/05/16 03:33:49;;;;;;;18.70;2.78;;;9.50;99.90;;;;;;5063394;28;20033;-77
2023/05/16 03:36:15;;;;;;;24.38;3.38;;;9.50;99.90;;;;;;5063254;28;20081;-77
2023/05/16 03:38:40;;;;;;;23.40;3.15;;;9.40;99.90;;;;;;5061517;28;20028;-74
2023/05/16 03:41:06;;;;;;;24.10;3.00;;;9.40;99.90;;;;;;5062623;28;20048;-73
2023/05/16 03:43:31;;;;;;;12.40;1.88;;;9.50;99.90;;;;;;5063691;28;20037;-75
2023/05/16 03:45:57;;;;;;;18.30;3.00;;;9.50;99.90;;;;;;5062237;28;20025;-74
2023/05/16 03:48:23;;;;;;;16.38;2.83;;;9.40;99.90;;;;;;5063549;28;20040;-74
2023/05/16 03:50:50;;;;;;;20.02;2.70;;;9.40;99.90;;;;;;5063360;28;20044;-74
2023/05/16 03:53:15;;;;;;;20.15;2.80;;;9.40;99.90;;;;;;5063244;28;20092;-74
2023/05/16 03:55:41;;;;;;;21.73;2.72;;;9.40;99.90;;;;;;5059359;28;20063;-72
2023/05/16 03:58:07;;;;;;;26.75;2.78;;;9.40;99.90;;;;;;5062371;28;20544;-71
2023/05/16 04:00:33;;;;;;;20.38;3.00;;;9.40;99.90;;;;;;5060106;28;20021;-75
2023/05/16 04:02:59;;;;;;;27.15;3.78;;;9.40;99.90;;;;;;5061290;28;20048;-78
2023/05/16 04:05:24;;;;;;;18.50;2.88;;;9.40;99.90;;;;;;5059758;28;20032;-76
2023/05/16 04:07:50;;;;;;;16.35;2.70;;;9.30;99.90;;;;;;5061975;28;20059;-74
2023/05/16 04:10:15;;;;;;;21.80;3.42;;;9.30;99.90;;;;;;5063244;28;20044;-75
2023/05/16 04:12:41;;;;;;;25.98;3.63;;;9.30;99.90;;;;;;5062961;28;20028;-74
2023/05/16 04:15:07;;;;;;;22.85;3.00;;;9.30;99.90;;;;;;5061943;28;20035;-75
2023/05/16 04:17:33;;;;;;;26.77;3.47;;;9.30;99.90;;;;;;5061646;28;20032;-73
2023/05/16 04:19:59;;;;;;;18.38;3.13;;;9.30;99.90;;;;;;5062192;28;20035;-76
2023/05/16 04:22:25;;;;;;;21.38;2.85;;;9.30;99.90;;;;;;5061272;28;20021;-76
2023/05/16 04:24:51;;;;;;;23.02;3.35;;;9.30;99.90;;;;;;5062596;28;20074;-75
2023/05/16 04:27:16;;;;;;;28.63;2.95;;;9.30;99.90;;;;;;5062841;28;20029;-72
2023/05/16 04:29:42;;;;;;;26.10;3.63;;;9.30;99.90;;;;;;5062757;28;20041;-73
2023/05/16 04:32:08;;;;;;;20.65;2.97;;;9.30;99.90;;;;;;5061319;28;20421;-72
2023/05/16 04:34:36;;;;;;;20.13;2.65;;;9.30;99.90;;;;;;5062663;28;20474;-73
2023/05/16 04:37:04;;;;;;;14.00;2.58;;;9.30;99.90;;;;;;5060959;28;20031;-73
2023/05/16 04:39:30;;;;;;;22.10;3.30;;;9.30;99.90;;;;;;5061891;28;20029;-73
2023/05/16 04:41:58;;;;;;;16.42;3.00;;;9.30;99.90;;;;;;5062554;28;20576;-74
2023/05/16 04:44:24;;;;;;;20.23;2.90;;;9.30;99.90;;;;;;5061418;28;20031;-76
2023/05/16 04:46:50;;;;;;;20.08;2.95;;;9.20;99.90;;;;;;5059840;28;20037;-76
2023/05/16 04:49:15;;;;;;;20.63;3.10;;;9.10;99.90;;;;;;5060726;28;20051;-74
2023/05/16 04:51:41;;;;;;;20.63;3.05;;;9.00;99.90;;;;;;5061556;28;20028;-73
2023/05/16 04:54:07;;;;;;;26.48;2.97;;;9.00;99.90;;;;;;5061561;28;20032;-76
2023/05/16 04:56:33;;;;;;;21.77;2.90;;;9.00;99.90;;;;;;5060439;28;20032;-75
2023/05/16 04:58:58;;;;;;;18.55;2.42;;;9.10;99.90;;;;;;5061139;28;20017;-75
2023/05/16 05:01:24;;;;;;;24.73;2.78;;;9.10;99.90;;;;;;5062440;28;20531;-73
2023/05/16 05:03:49;;;;;;;20.23;3.08;;;9.00;99.90;;;;;;5060319;28;20013;-75
2023/05/16 05:06:15;;;;;;;19.65;3.55;;;9.10;99.90;;;;;;5060861;28;20032;-73
2023/05/16 05:08:41;;;;;;;21.52;2.63;;;9.10;99.90;;;;;;5060894;28;20057;-75
2023/05/16 05:11:06;;;;;;;25.65;3.30;;;9.10;99.90;;;;;;5059628;28;20037;-75
2023/05/16 05:13:32;;;;;;;22.83;2.88;;;9.10;99.90;;;;;;5062095;28;20025;-73
2023/05/16 05:15:57;;;;;;;17.85;2.78;;;9.20;99.90;;;;;;5057935;28;20496;-72
2023/05/16 05:18:23;;;;;;;15.43;2.83;;;9.20;99.90;;;;;;5060275;28;20084;-73
2023/05/16 05:20:49;;;;;;;21.05;3.20;;;9.20;99.90;;;;;;5061684;28;20047;-72
2023/05/16 05:23:15;;;;;;;16.50;4.03;;;9.20;99.90;;;;;;5061354;28;20023;-71
2023/05/16 05:25:42;;;;;;;15.73;2.90;;;9.20;99.90;;;;;;5061955;28;20032;-70
2023/05/16 05:28:07;;;;;;;23.15;3.00;;;9.30;99.90;;;;;;5061879;28;20027;-74
2023/05/16 05:30:33;;;;;;;21.52;2.60;;;9.30;99.90;;;;;;5059187;28;20140;-72
2023/05/16 05:32:59;;;;;;;26.67;3.08;;;9.30;99.90;;;;;;5060334;28;20423;-72
2023/05/16 05:35:24;;;;;;;19.27;2.88;;;9.30;99.90;;;;;;5053442;28;20045;-70
2023/05/16 05:37:51;;;;;;;25.08;2.78;;;9.40;99.90;;;;;;5057957;28;20021;-74
2023/05/16 05:40:16;;;;;;;19.63;2.97;;;9.40;99.90;;;;;;5061101;28;20039;-71
2023/05/16 05:42:42;;;;;;;22.15;3.47;;;9.40;99.90;;;;;;5060967;28;20029;-73
2023/05/16 05:45:08;;;;;;;18.58;2.95;;;9.40;99.90;;;;;;5056224;28;20029;-69
2023/05/16 05:47:33;;;;;;;23.15;3.30;;;9.50;99.90;;;;;;5059412;28;20025;-69
2023/05/16 05:49:59;;;;;;;16.95;2.63;;;9.50;99.90;;;;;;5058185;28;20055;-73
2023/05/16 05:52:27;;;;;;;26.63;3.28;;;9.50;99.90;;;;;;5059186;28;20028;-70
2023/05/16 05:54:52;;;;;;;17.85;3.05;;;9.50;99.90;;;;;;5060967;28;20060;-74
2023/05/16 05:57:18;;;;;;;16.67;2.45;;;9.50;99.90;;;;;;5058671;28;20033;-70
2023/05/16 05:59:44;;;;;;;21.48;3.33;;;9.60;99.90;;;;;;5056238;28;20057;-73
2023/05/16 06:02:10;;;;;;;21.40;3.15;;;9.60;99.90;;;;;;5055240;28;20087;-72
2023/05/16 06:04:35;;;;;;;16.30;2.50;;;9.60;99.90;;;;;;5053949;28;20497;-71
2023/05/16 06:07:01;;;;;;;16.45;2.63;;;9.70;99.90;;;;;;5060240;28;20116;-70
2023/05/16 06:09:26;;;;;;;14.80;2.38;;;9.70;99.90;;;;;;5060653;28;20036;-72
2023/05/16 06:11:52;;;;;;;25.58;3.30;;;9.80;99.90;;;;;;5060550;28;20040;-71
2023/05/16 06:14:18;;;;;;;20.48;2.75;;;9.80;99.90;;;;;;5061456;28;20032;-69
2023/05/16 06:16:44;;;;;;;17.20;2.50;;;9.90;99.90;;;;;;5060961;28;20166;-74
2023/05/16 06:19:11;;;;;;;26.40;2.70;;;10.00;99.90;;;;;;5058773;28;20055;-73
2023/05/16 06:21:36;;;;;;;20.80;2.35;;;10.00;99.90;;;;;;5061980;28;20580;-72
2023/05/16 06:24:02;;;;;;;19.13;2.78;;;10.00;99.90;;;;;;5061512;28;20025;-71
2023/05/16 06:26:27;;;;;;;20.20;2.55;;;10.00;99.90;;;;;;5060913;28;20033;-72
2023/05/16 06:28:53;;;;;;;17.55;2.70;;;10.00;99.90;;;;;;5059856;28;20047;-71
2023/05/16 06:31:19;;;;;;;17.33;2.50;;;10.00;99.90;;;;;;5060739;28;20033;-72
2023/05/16 06:33:44;;;;;;;18.70;3.03;;;10.00;99.90;;;;;;5060611;28;20021;-75
2023/05/16 06:36:10;;;;;;;18.60;2.80;;;10.10;99.90;;;;;;5061676;28;20071;-72
2023/05/16 06:38:36;;;;;;;17.80;2.83;;;10.10;99.90;;;;;;5060090;28;20024;-71
2023/05/16 06:41:01;;;;;;;21.83;2.88;;;10.20;99.90;;;;;;5061578;28;20029;-72
2023/05/16 06:43:27;;;;;;;24.45;3.10;;;10.30;99.90;;;;;;5061217;28;20027;-73
2023/05/16 06:45:52;;;;;;;17.20;2.60;;;10.40;99.90;;;;;;5059656;28;20029;-72
2023/05/16 06:48:18;;;;;;;25.23;2.95;;;10.40;99.90;;;;;;5058767;28;20041;-75
2023/05/16 06:50:50;;;;;;;17.67;2.35;;;10.50;99.90;;;;;;5060947;28;20040;-71
2023/05/16 06:53:17;;;;;;;21.98;2.70;;;10.50;99.90;;;;;;5060812;28;20699;-70
2023/05/16 06:55:43;;;;;;;14.35;2.20;;;10.70;99.90;;;;;;5060722;28;20031;-72
2023/05/16 06:58:09;;;;;;;21.80;2.22;;;10.80;99.90;;;;;;5053688;28;20501;-75
2023/05/16 07:00:34;;;;;;;17.85;2.75;;;10.90;99.90;;;;;;5063637;28;20058;-74
2023/05/16 07:03:00;;;;;;;12.95;2.67;;;11.00;99.90;;;;;;5062749;28;20024;-69
2023/05/16 07:05:26;;;;;;;22.95;3.10;;;11.00;99.90;;;;;;5063027;28;20025;-73
2023/05/16 07:07:51;;;;;;;19.15;2.80;;;11.20;99.90;;;;;;5063576;28;20103;-72
2023/05/16 07:10:17;;;;;;;22.73;2.60;;;11.20;99.90;;;;;;5064374;28;20044;-72
2023/05/16 07:12:42;;;;;;;16.58;2.53;;;11.10;99.90;;;;;;5063349;28;20021;-72
2023/05/16 07:15:08;;;;;;;17.40;2.08;;;11.00;99.90;;;;;;5064323;28;20029;-74
2023/05/16 07:17:34;;;;;;;17.42;2.40;;;10.90;99.90;;;;;;5064191;28;20032;-74
2023/05/16 07:20:00;;;;;;;22.27;2.78;;;11.00;99.90;;;;;;5063913;28;20021;-68
2023/05/16 07:22:25;;;;;;;15.20;2.53;;;11.10;99.90;;;;;;5064072;28;20025;-72
2023/05/16 07:24:53;;;;;;;14.05;2.33;;;11.30;99.90;;;;;;5064715;28;20025;-73
2023/05/16 07:27:18;;;;;;;15.15;1.65;;;11.40;99.90;;;;;;5063662;28;20021;-73
2023/05/16 07:29:44;;;;;;;5.80;1.75;;;11.40;99.90;;;;;;5064274;28;20039;-72
2023/05/16 07:32:10;;;;;;;10.32;1.27;;;11.20;99.90;;;;;;5063148;28;20017;-72
2023/05/16 07:34:35;;;;;;;8.25;1.85;;;10.90;99.90;;;;;;5063507;28;20106;-71
2023/05/16 07:37:01;;;;;;;10.98;2.33;;;10.70;99.90;;;;;;5064096;28;20029;-71
2023/05/16 07:39:27;;;;;;;13.00;2.20;;;10.50;99.90;;;;;;5064072;28;20021;-73
2023/05/16 07:41:52;;;;;;;12.38;2.38;;;10.50;99.90;;;;;;5060910;28;20401;-72
2023/05/16 07:44:18;;;;;;;11.18;1.77;;;10.50;99.90;;;;;;5061012;28;20045;-72
2023/05/16 07:46:43;;;;;;;14.27;1.90;;;10.50;99.90;;;;;;5062234;28;20029;-74
2023/05/16 07:49:09;;;;;;;12.35;2.08;;;10.60;99.90;;;;;;5060643;28;20045;-74
2023/05/16 07:51:35;;;;;;;14.10;1.70;;;10.70;99.90;;;;;;5062137;28;20016;-77
2023/05/16 07:54:01;;;;;;;14.57;1.80;;;10.70;99.90;;;;;;5064209;28;20470;-71
2023/05/16 07:56:27;;;;;;;11.57;1.83;;;10.70;99.90;;;;;;5062608;28;20065;-72
2023/05/16 07:58:53;;;;;;;11.30;2.30;;;10.70;99.90;;;;;;5062896;28;20063;-75
2023/05/16 08:01:19;;;;;;;13.30;2.00;;;10.90;99.90;;;;;;5061960;28;20036;-73
2023/05/16 08:03:45;;;;;;;9.40;2.08;;;11.00;99.90;;;;;;5062076;28;20025;-74
2023/05/16 08:06:10;;;;;;;7.35;1.60;;;11.20;99.90;;;;;;5062330;28;20025;-71
2023/05/16 08:08:36;;;;;;;9.70;1.83;;;11.30;99.90;;;;;;5062521;28;20017;-74
2023/05/16 08:11:02;;;;;;;7.95;1.60;;;11.50;99.90;;;;;;5062624;28;20039;-70
2023/05/16 08:13:28;;;;;;;8.60;1.70;;;11.70;99.90;;;;;;5063638;28;20041;-72
2023/05/16 08:15:53;;;;;;;12.02;1.63;;;11.80;99.90;;;;;;5062234;28;20057;-70
2023/05/16 08:18:19;;;;;;;19.65;1.50;;;11.90;99.90;;;;;;5061361;28;20390;-70
2023/05/16 08:20:44;;;;;;;12.88;1.40;;;11.80;99.90;;;;;;5062427;28;20032;-71
2023/05/16 08:23:10;;;;;;;15.05;2.10;;;11.80;99.90;;;;;;5060303;28;20047;-72
2023/05/16 08:25:36;;;;;;;14.07;1.92;;;11.80;99.90;;;;;;5058179;28;20035;-69
2023/05/16 08:28:01;;;;;;;7.32;1.20;;;11.90;99.90;;;;;;5061974;28;20033;-73
2023/05/16 08:30:28;;;;;;;8.23;1.65;;;11.90;99.90;;;;;;5063088;28;20033;-71
2023/05/16 08:32:53;;;;;;;9.43;1.60;;;12.00;99.90;;;;;;5055685;28;20036;-71
2023/05/16 08:35:19;;;;;;;11.85;2.13;;;12.20;99.90;;;;;;5060487;28;20108;-71
2023/05/16 08:37:45;;;;;;;14.73;2.13;;;12.30;99.90;;;;;;5058082;28;20033;-71
2023/05/16 08:40:11;;;;;;;9.95;2.00;;;12.40;99.90;;;;;;5061430;28;20028;-77
2023/05/16 08:42:38;;;;;;;12.95;1.75;;;12.50;99.90;;;;;;5059745;28;20043;-73
2023/05/16 08:45:05;;;;;;;9.50;1.42;;;12.60;99.90;;;;;;5058803;28;20033;-73
2023/05/16 08:47:31;;;;;;;14.77;2.10;;;12.70;99.90;;;;;;5075931;28;20021;-71
2023/05/16 08:49:59;;;;;;;9.55;1.85;;;12.80;99.90;;;;;;5058974;28;20047;-71
2023/05/16 08:52:30;;;;;;;11.20;2.10;;;12.60;99.90;;;;;;5060366;28;20034;-74
2023/05/16 08:55:04;;;;;;;17.35;2.60;;;12.90;99.90;;;;;;5061533;28;20524;-74
2023/05/16 08:57:30;;;;;;;;;;;13.00;99.90;;;;;;5061594;28;20531;-68
2023/05/16 08:59:57;;;;;;;14.52;2.20;;;13.00;99.90;;;;;;5060761;28;19955;-73
2023/05/16 09:02:23;;;;;;;27.38;2.80;;;12.90;99.90;;;;;;5059783;28;20115;-71
2023/05/16 09:04:48;;;;;;;14.18;2.53;;;12.90;99.90;;;;;;5059089;28;20831;-69
2023/05/16 09:07:14;;;;;;;16.55;2.80;;;13.10;99.90;;;;;;5062262;28;20035;-72
2023/05/16 09:09:41;;;;;;;12.00;2.22;;;13.10;99.90;;;;;;5061670;28;20054;-72
2023/05/16 09:12:07;;;;;;;11.90;2.15;;;13.10;99.90;;;;;;5059756;28;20021;-71
2023/05/16 09:14:33;;;;;;;9.23;2.22;;;13.30;99.90;;;;;;5061290;28;20056;-71
2023/05/16 09:17:06;;;;;;;10.95;2.65;;;13.40;99.90;;;;;;5059778;28;20047;-69
2023/05/16 09:19:40;;;;;;;11.40;2.00;;;13.50;99.90;;;;;;5060682;28;20103;-70
2023/05/16 09:22:13;;;;;;;10.43;2.10;;;13.70;99.90;;;;;;5062436;28;20029;-69
2023/05/16 09:24:43;;;;;;;11.17;1.93;;;13.70;99.90;;;;;;5061763;28;20024;-72
2023/05/16 09:27:09;;;;;;;9.52;1.88;;;13.60;99.90;;;;;;5060370;28;20044;-73
2023/05/16 09:29:35;;;;;;;16.48;2.15;;;13.40;99.90;;;;;;5061134;28;20041;-71
2023/05/16 09:32:09;;;;;;;15.85;2.13;;;13.20;99.90;;;;;;5059794;28;20048;-71
2023/05/16 09:34:38;;;;;;;16.70;1.88;;;12.90;99.90;;;;;;5062390;28;20058;-71
2023/05/16 09:37:04;;;;;;;11.88;2.03;;;12.90;99.90;;;;;;5061150;28;20017;-72
2023/05/16 09:39:30;;;;;;;16.77;1.90;;;13.00;99.90;;;;;;5058354;28;20028;-70
2023/05/16 09:41:58;;;;;;;18.10;2.13;;;13.20;99.90;;;;;;5056313;28;20024;-72
2023/05/16 09:44:23;;;;;;;11.80;2.08;;;13.20;99.90;;;;;;5057893;28;20029;-73
2023/05/16 09:46:49;;;;;;;13.75;1.90;;;13.10;99.90;;;;;;5058369;28;21424;-68
2023/05/16 09:49:15;;;;;;;7.40;1.60;;;13.30;99.90;;;;;;5059398;28;20555;-70
2023/05/16 09:51:42;;;;;;;11.98;1.98;;;13.50;99.90;;;;;;5058709;28;20069;-73
2023/05/16 09:54:08;;;;;;;11.77;2.15;;;13.50;99.90;;;;;;5061277;28;20020;-72
2023/05/16 09:56:48;;;;;;;9.50;2.00;;;13.20;99.90;;;;;;5061353;28;20031;-70
2023/05/16 09:59:14;;;;;;;13.13;2.00;;;12.80;99.90;;;;;;5059928;28;20067;-70
2023/05/16 10:01:40;;;;;;;11.68;2.08;;;12.60;99.90;;;;;;5061614;28;20020;-69
2023/05/16 10:04:09;;;;;;;7.22;1.55;;;12.20;99.90;;;;;;5058031;28;20096;-68
2023/05/16 10:06:35;;;;;;;9.55;1.40;;;11.90;99.90;;;;;;5056344;28;20060;-71
2023/05/16 10:09:01;;;;;;;7.95;1.50;;;11.50;99.90;;;;;;5057911;28;20029;-68
2023/05/16 10:11:28;;;;;;;7.38;1.67;;;11.40;99.90;;;;;;5056823;28;20037;-73
2023/05/16 10:13:54;;;;;;;10.80;1.83;;;11.30;99.90;;;;;;5057358;28;20025;-69
2023/05/16 10:16:22;;;;;;;7.80;2.00;;;11.20;99.90;;;;;;5059019;28;20081;-70
2023/05/16 10:18:49;;;;;;;7.78;1.58;;;11.30;99.90;;;;;;5057209;28;20017;-72
2023/05/16 10:21:17;;;;;;;6.88;1.70;;;11.40;99.90;;;;;;5058106;28;20481;-71
2023/05/16 10:23:46;;;;;;;13.13;1.98;;;11.50;99.90;;;;;;5058524;28;20078;-72
2023/05/16 10:26:14;;;;;;;12.25;1.80;;;11.60;99.90;;;;;;5058486;28;20100;-72
2023/05/16 10:28:40;;;;;;;8.65;1.80;;;11.70;99.90;;;;;;5059589;28;20021;-69
2023/05/16 10:31:07;;;;;;;10.95;1.70;;;11.90;99.90;;;;;;5060699;28;20047;-72
2023/05/16 10:33:34;;;;;;;7.65;1.90;;;12.20;99.90;;;;;;5056975;28;20033;-72
2023/05/16 10:36:00;;;;;;;11.70;1.50;;;12.60;99.90;;;;;;5060257;28;20523;-71
2023/05/16 10:38:27;;;;;;;5.60;1.60;;;13.00;99.90;;;;;;5064662;28;20311;-72
2023/05/16 10:40:55;;;;;;;9.23;1.30;;;13.00;99.90;;;;;;5063804;28;20096;-71
2023/05/16 10:43:26;;;;;;;8.43;1.75;;;12.80;99.90;;;;;;5060644;28;20028;-74
2023/05/16 10:46:02;;;;;;;14.57;1.75;;;12.50;99.90;;;;;;5063899;28;20013;-72
2023/05/16 10:48:34;;;;;;;6.70;1.35;;;12.20;99.90;;;;;;5062873;28;20048;-70
2023/05/16 10:51:01;;;;;;;5.50;1.33;;;12.10;99.90;;;;;;5060121;28;20117;-73
2023/05/16 10:53:32;;;;;;;9.20;1.50;;;11.90;99.90;;;;;;5064782;28;20032;-73
2023/05/16 10:55:58;;;;;;;11.98;1.85;;;11.80;99.90;;;;;;5060244;28;20525;-70
2023/05/16 10:58:45;;;;;;;7.78;1.27;;;12.00;99.90;;;;;;5063275;28;20052;-70
2023/05/16 11:01:28;;;;;;;10.40;1.90;;;12.20;99.90;;;;;;5060530;28;20079;-74
2023/05/16 11:03:56;;;;;;;11.73;2.10;;;12.60;99.90;;;;;;5061586;28;20039;-70
2023/05/16 11:06:23;;;;;;;7.80;1.80;;;12.90;99.90;;;;;;5063320;28;20029;-75
2023/05/16 11:09:08;;;;;;;8.60;1.67;;;13.10;99.90;;;;;;5058664;28;20112;-74
2023/05/16 11:11:47;;;;;;;14.27;1.70;;;13.40;99.90;;;;;;5060438;28;20034;-70
2023/05/16 11:14:21;;;;;;;9.52;1.50;;;13.60;99.90;;;;;;5061261;28;20021;-70
2023/05/16 11:16:48;;;;;;;;;;;13.70;99.90;;;;;;5058948;28;20489;-75
2023/05/16 11:19:47;;;;;;;9.10;1.77;;;13.70;99.90;;;;;;5061075;28;19920;-71
2023/05/16 11:22:22;;;;;;;7.25;1.83;;;13.80;99.90;;;;;;5059219;28;20051;-70
2023/05/16 11:25:04;;;;;;;9.82;1.65;;;14.00;99.90;;;;;;5061755;28;20457;-71
2023/05/16 11:27:35;;;;;;;7.93;1.73;;;13.90;99.90;;;;;;5062114;28;20078;-71
2023/05/16 11:30:04;;;;;;;5.97;1.40;;;13.90;99.90;;;;;;5064006;28;20063;-72
2023/05/16 11:32:32;;;;;;;6.05;1.38;;;13.80;99.90;;;;;;5062526;28;20025;-72
2023/05/16 11:34:58;;;;;;;5.35;1.27;;;13.60;99.90;;;;;;5063754;28;20035;-73
2023/05/16 11:37:24;;;;;;;7.90;1.60;;;13.80;99.90;;;;;;5063764;28;20064;-71
2023/05/16 11:39:49;;;;;;;10.85;1.45;;;14.00;99.90;;;;;;5063882;28;20031;-73
2023/05/16 11:42:16;;;;;;;3.85;1.30;;;14.20;99.90;;;;;;5063403;28;20107;-69
2023/05/16 11:44:42;;;;;;;7.38;1.13;;;14.20;99.90;;;;;;5064083;28;20025;-73
2023/05/16 11:47:08;;;;;;;157.73;7.70;;;14.20;99.90;;;;;;5056760;28;20080;-73
2023/05/16 11:49:34;;;;;;;4.05;0.98;;;14.20;99.90;;;;;;5052962;28;20053;-71
2023/05/16 11:52:00;;;;;;;3.40;0.85;;;14.10;99.90;;;;;;5058231;28;20037;-69
2023/05/16 11:54:26;;;;;;;33.47;2.35;;;14.20;99.90;;;;;;5062649;28;20025;-72
2023/05/16 11:56:52;;;;;;;6.45;1.05;;;14.40;99.90;;;;;;5063201;28;20056;-70
2023/05/16 11:59:18;;;;;;;28.15;2.03;;;14.40;99.90;;;;;;5063142;28;20083;-73
2023/05/16 12:01:44;;;;;;;10.13;1.35;;;14.20;99.90;;;;;;5060749;28;20037;-73
2023/05/16 12:04:12;;;;;;;6.18;1.33;;;14.30;99.90;;;;;;5062761;28;20532;-72
2023/05/16 12:06:38;;;;;;;9.43;1.77;;;14.40;99.90;;;;;;5057945;28;20382;-72
2023/05/16 12:09:11;;;;;;;9.63;1.50;;;14.60;99.90;;;;;;5060125;28;20025;-75
2023/05/16 12:11:42;;;;;;;9.68;1.60;;;14.70;99.90;;;;;;5062505;28;20158;-71
2023/05/16 12:14:10;;;;;;;11.30;1.95;;;14.80;99.90;;;;;;5061153;28;20029;-72
2023/05/16 12:16:37;;;;;;;13.05;1.50;;;14.90;99.90;;;;;;5059575;28;20821;-71
2023/05/16 12:19:07;;;;;;;7.40;1.75;;;15.30;99.90;;;;;;5062022;28;20017;-74
2023/05/16 12:21:33;;;;;;;30.33;2.50;;;15.50;99.90;;;;;;5062101;28;20035;-69
2023/05/16 12:23:59;;;;;;;7.93;1.45;;;15.70;99.90;;;;;;5061473;28;20120;-70
2023/05/16 12:26:32;;;;;;;6.55;1.42;;;15.40;99.90;;;;;;5063073;28;20029;-70
2023/05/16 12:29:01;;;;;;;11.77;1.50;;;15.10;99.90;;;;;;5060389;28;20025;-70
2023/05/16 12:31:29;;;;;;;13.40;1.90;;;14.70;99.90;;;;;;5061829;28;20052;-72
2023/05/16 12:33:55;;;;;;;14.30;2.10;;;14.30;99.90;;;;;;5059839;28;20044;-69
2023/05/16 12:36:22;;;;;;;10.35;1.88;;;14.10;99.90;;;;;;5061360;28;20017;-72
2023/05/16 12:38:48;;;;;;;7.35;1.38;;;14.20;99.90;;;;;;5063129;28;20520;-71
2023/05/16 12:41:21;;;;;;;14.10;2.55;;;14.00;99.90;;;;;;5063176;28;20025;-74
2023/05/16 12:43:47;;;;;;;10.77;1.70;;;13.80;99.90;;;;;;5060586;28;20437;-72